Time;durP1;ratioP1;P1;durP2;ratioP2;P2;SDS_P1;SDS_P2;PMS_P1;PMS_P2;Temp;Humidity;BMP_temperature;BMP_pressure;BME280_temperature;BME280_humidity;BME280_pressure;Samples;Min_cycle;Max_cycle;Signal;HPM_P1;HPM_P2
2022/03/28 00:01:09;;;;;;;7.60;4.03;;;6.70;85.60;;;;;;5045716;28;20130;-67
2022/03/28 00:03:36;;;;;;;5.57;3.13;;;6.70;86.20;;;;;;5060709;28;20543;-66
2022/03/28 00:06:03;;;;;;;5.35;3.08;;;6.60;86.20;;;;;;5053888;28;20040;-68
2022/03/28 00:08:29;;;;;;;5.00;3.00;;;6.50;86.10;;;;;;5059278;28;20112;-68
2022/03/28 00:10:55;;;;;;;5.18;3.05;;;6.50;86.80;;;;;;5058669;28;20445;-69
2022/03/28 00:13:20;;;;;;;6.47;3.17;;;6.50;87.10;;;;;;5062577;28;20044;-68
2022/03/28 00:15:46;;;;;;;7.03;3.67;;;6.50;87.30;;;;;;5055244;28;20040;-69
2022/03/28 00:18:12;;;;;;;4.78;2.63;;;6.50;86.70;;;;;;5055161;28;20029;-69
2022/03/28 00:20:39;;;;;;;5.13;3.13;;;6.40;85.90;;;;;;5059265;28;20476;-69
2022/03/28 00:23:05;;;;;;;5.07;3.08;;;6.40;86.20;;;;;;5060601;28;20033;-69
2022/03/28 00:25:31;;;;;;;5.95;2.65;;;6.40;86.80;;;;;;5054693;28;20140;-68
2022/03/28 00:27:57;;;;;;;5.00;3.38;;;6.30;87.40;;;;;;5054780;28;20048;-69
2022/03/28 00:30:23;;;;;;;6.18;3.53;;;6.30;87.90;;;;;;5060510;28;20033;-69
2022/03/28 00:32:49;;;;;;;5.15;3.63;;;6.30;88.00;;;;;;5041722;28;20038;-69
2022/03/28 00:35:15;;;;;;;6.43;4.15;;;6.30;88.10;;;;;;5058115;28;20037;-69
2022/03/28 00:37:41;;;;;;;9.68;3.80;;;6.30;88.00;;;;;;5055478;28;20024;-68
2022/03/28 00:40:11;;;;;;;5.47;3.35;;;6.30;87.80;;;;;;5055386;28;20071;-68
2022/03/28 00:42:37;;;;;;;6.90;4.03;;;6.30;87.70;;;;;;5060658;28;20028;-69
2022/03/28 00:45:07;;;;;;;5.22;3.78;;;6.30;87.60;;;;;;5061218;28;20040;-69
2022/03/28 00:47:33;;;;;;;5.68;3.53;;;6.30;87.20;;;;;;5055463;28;20040;-69
2022/03/28 00:49:59;;;;;;;6.20;3.85;;;6.20;86.90;;;;;;5054324;28;20819;-69
2022/03/28 00:52:25;;;;;;;7.88;4.28;;;6.20;87.00;;;;;;5058481;28;20029;-68
2022/03/28 00:54:51;;;;;;;6.40;3.97;;;6.20;87.50;;;;;;5059405;28;20422;-68
2022/03/28 00:57:17;;;;;;;8.20;3.95;;;6.10;88.10;;;;;;5057435;28;20021;-69
2022/03/28 00:59:44;;;;;;;8.70;4.95;;;6.10;88.60;;;;;;5055860;28;20946;-68
2022/03/28 01:02:09;;;;;;;8.73;4.20;;;6.10;89.00;;;;;;5054997;28;20035;-69
2022/03/28 01:04:37;;;;;;;6.95;4.15;;;6.10;89.30;;;;;;5058976;28;20483;-69
2022/03/28 01:07:06;;;;;;;7.40;3.70;;;6.10;89.50;;;;;;5059932;28;20040;-68
2022/03/28 01:09:33;;;;;;;6.82;4.05;;;6.10;89.60;;;;;;5053181;28;20105;-68
2022/03/28 01:11:59;;;;;;;7.38;4.13;;;6.10;89.70;;;;;;5053662;28;21119;-68
2022/03/28 01:14:26;;;;;;;9.73;4.30;;;6.10;89.70;;;;;;5054390;28;20799;-68
2022/03/28 01:19:36;;;;;;;8.45;4.47;;;6.10;90.00;;;;;;5057370;28;20037;-68
2022/03/28 01:22:02;;;;;;;8.70;4.47;;;6.10;90.10;;;;;;5052929;28;20032;-68
2022/03/28 01:24:28;;;;;;;7.07;4.20;;;6.10;90.20;;;;;;5057686;28;20538;-68
2022/03/28 01:26:55;;;;;;;6.13;4.30;;;6.10;90.30;;;;;;5057812;28;20028;-68
2022/03/28 01:29:21;;;;;;;8.85;4.68;;;6.10;90.30;;;;;;5054609;28;20040;-69
2022/03/28 01:31:46;;;;;;;6.80;4.20;;;6.10;90.30;;;;;;5054190;28;20107;-68
2022/03/28 01:34:19;;;;;;;8.07;5.00;;;6.10;90.30;;;;;;5054561;28;20596;-68
2022/03/28 01:36:47;;;;;;;8.57;4.80;;;6.10;90.30;;;;;;5057911;28;20028;-68
2022/03/28 01:39:16;;;;;;;9.75;5.05;;;6.10;90.40;;;;;;5059652;28;20112;-68
2022/03/28 01:41:42;;;;;;;8.32;4.30;;;6.10;90.40;;;;;;5050778;28;20460;-69
2022/03/28 01:44:08;;;;;;;8.30;4.47;;;6.10;90.30;;;;;;5056339;28;20294;-68
2022/03/28 01:46:46;;;;;;;11.38;4.85;;;6.10;90.40;;;;;;5058978;28;20070;-70
2022/03/28 01:49:15;;;;;;;8.18;4.82;;;6.10;90.40;;;;;;5058286;28;20029;-70
2022/03/28 01:51:41;;;;;;;11.48;5.15;;;6.10;90.50;;;;;;5057668;28;20484;-69
2022/03/28 01:54:07;;;;;;;10.35;4.90;;;6.10;90.50;;;;;;5054920;28;20078;-69
2022/03/28 01:56:39;;;;;;;7.35;4.75;;;6.00;90.50;;;;;;5055963;28;20102;-68
2022/03/28 01:59:06;;;;;;;10.48;4.50;;;6.10;90.50;;;;;;5055068;28;20028;-69
2022/03/28 02:01:33;;;;;;;10.27;4.65;;;6.00;90.60;;;;;;5057626;28;20516;-69
2022/03/28 02:03:59;;;;;;;9.55;5.05;;;6.00;90.70;;;;;;5053162;28;20090;-67
2022/03/28 02:06:25;;;;;;;9.27;5.07;;;6.00;90.90;;;;;;5055900;28;20697;-68
2022/03/28 02:08:51;;;;;;;10.13;5.38;;;6.00;90.90;;;;;;5059501;28;20572;-68
2022/03/28 02:11:17;;;;;;;11.68;5.20;;;6.00;90.90;;;;;;5058513;28;20029;-69
2022/03/28 02:13:42;;;;;;;9.15;4.85;;;6.00;91.20;;;;;;5057092;28;20037;-69
2022/03/28 02:16:09;;;;;;;7.72;4.63;;;6.00;90.90;;;;;;5053841;28;20040;-69
2022/03/28 02:18:35;;;;;;;9.57;5.10;;;6.00;91.00;;;;;;5055212;28;20035;-68
2022/03/28 02:21:01;;;;;;;9.10;5.60;;;5.90;90.90;;;;;;5056723;28;20032;-68
2022/03/28 02:23:28;;;;;;;10.80;5.03;;;5.90;90.80;;;;;;5060738;28;20043;-68
2022/03/28 02:25:54;;;;;;;9.98;5.22;;;5.90;90.70;;;;;;5052085;28;20044;-68
2022/03/28 02:28:25;;;;;;;11.27;5.68;;;5.90;90.80;;;;;;5055223;28;20032;-69
2022/03/28 02:30:51;;;;;;;8.73;5.05;;;5.80;90.80;;;;;;5056620;28;20768;-69
2022/03/28 02:33:17;;;;;;;11.13;5.05;;;5.80;90.90;;;;;;5057412;28;20049;-66
2022/03/28 02:35:43;;;;;;;12.18;5.65;;;5.80;90.90;;;;;;5038577;28;20036;-68
2022/03/28 02:38:08;;;;;;;11.77;5.50;;;5.80;91.10;;;;;;5051780;28;20037;-69
2022/03/28 02:40:35;;;;;;;8.32;5.30;;;5.70;91.20;;;;;;5056492;28;20072;-69
2022/03/28 02:43:02;;;;;;;13.20;6.35;;;5.70;91.40;;;;;;5057893;28;20045;-69
2022/03/28 02:45:31;;;;;;;9.35;5.20;;;5.70;91.50;;;;;;5055801;28;20516;-68
2022/03/28 02:47:59;;;;;;;10.90;5.43;;;5.60;91.40;;;;;;5051282;28;20076;-69
2022/03/28 02:50:25;;;;;;;9.43;5.55;;;5.60;91.40;;;;;;5055147;28;20702;-68
2022/03/28 02:52:51;;;;;;;12.30;5.50;;;5.60;91.30;;;;;;5055717;28;20431;-68
2022/03/28 02:55:17;;;;;;;12.05;5.90;;;5.50;91.20;;;;;;5059108;28;20077;-68
2022/03/28 02:57:43;;;;;;;8.38;4.93;;;5.50;91.30;;;;;;5052573;28;20552;-69
2022/03/28 03:00:10;;;;;;;12.27;5.63;;;5.50;91.50;;;;;;5060293;28;20532;-69
2022/03/28 03:02:40;;;;;;;9.80;6.07;;;5.40;91.30;;;;;;5061275;28;20132;-68
2022/03/28 03:05:07;;;;;;;8.85;5.65;;;5.40;91.30;;;;;;5062095;28;20028;-68
2022/03/28 03:07:33;;;;;;;10.57;5.35;;;5.30;91.30;;;;;;5061322;28;20085;-68
2022/03/28 03:09:59;;;;;;;10.75;6.25;;;5.30;91.50;;;;;;5053534;28;20470;-68
2022/03/28 03:12:25;;;;;;;9.18;5.40;;;5.30;91.70;;;;;;5059803;28;20082;-68
2022/03/28 03:14:52;;;;;;;14.15;6.57;;;5.30;92.00;;;;;;5041834;28;20057;-68
2022/03/28 03:17:18;;;;;;;14.25;6.50;;;5.30;92.30;;;;;;5063554;28;20028;-68
2022/03/28 03:19:44;;;;;;;12.10;6.30;;;5.30;92.50;;;;;;5056850;28;20036;-69
2022/03/28 03:22:12;;;;;;;10.85;6.40;;;5.30;92.70;;;;;;5055284;28;20039;-68
2022/03/28 03:24:37;;;;;;;13.93;6.28;;;5.30;92.80;;;;;;5062600;28;20089;-68
2022/03/28 03:27:03;;;;;;;16.77;7.10;;;5.30;92.90;;;;;;5060833;28;20033;-68
2022/03/28 03:29:29;;;;;;;11.52;6.93;;;5.40;93.00;;;;;;5060247;28;20639;-69
2022/03/28 03:31:55;;;;;;;13.80;7.10;;;5.40;93.10;;;;;;5056695;28;20136;-69
2022/03/28 03:34:20;;;;;;;11.68;5.82;;;5.40;93.00;;;;;;5058653;28;20034;-68
2022/03/28 03:36:46;;;;;;;11.82;6.38;;;5.40;93.00;;;;;;5060506;28;20476;-68
2022/03/28 03:39:12;;;;;;;14.10;6.63;;;5.30;93.10;;;;;;5062902;28;20440;-68
2022/03/28 03:41:38;;;;;;;15.80;8.23;;;5.40;93.20;;;;;;5052611;28;20041;-69
2022/03/28 03:44:05;;;;;;;13.15;6.82;;;5.40;93.30;;;;;;5055917;28;20590;-68
2022/03/28 03:46:32;;;;;;;14.35;7.00;;;5.50;93.40;;;;;;5060661;28;20067;-69
2022/03/28 03:48:58;;;;;;;15.43;7.38;;;5.50;93.50;;;;;;5061186;28;20017;-69
2022/03/28 03:51:23;;;;;;;15.07;7.18;;;5.50;93.50;;;;;;5059797;28;20036;-68
2022/03/28 03:53:49;;;;;;;16.48;7.13;;;5.50;93.50;;;;;;5057396;28;20036;-69
2022/03/28 03:56:15;;;;;;;14.27;6.95;;;5.50;93.50;;;;;;5062161;28;20048;-69
2022/03/28 03:58:41;;;;;;;13.13;6.82;;;5.50;93.50;;;;;;5062248;28;20032;-69
2022/03/28 04:01:09;;;;;;;13.07;6.55;;;5.50;93.90;;;;;;5062320;28;20675;-68
2022/03/28 04:03:36;;;;;;;15.65;6.95;;;5.50;93.60;;;;;;5051466;28;20033;-68
2022/03/28 04:06:02;;;;;;;15.68;6.93;;;5.50;93.50;;;;;;5057950;28;20037;-69
2022/03/28 04:08:28;;;;;;;13.13;7.50;;;5.40;93.60;;;;;;5061104;28;20229;-69
2022/03/28 04:10:55;;;;;;;12.52;6.88;;;5.40;93.30;;;;;;5054457;28;20036;-68
2022/03/28 04:13:21;;;;;;;15.80;7.32;;;5.40;93.30;;;;;;5058803;28;20154;-68
2022/03/28 04:15:47;;;;;;;12.60;7.50;;;5.40;93.40;;;;;;5057331;28;20051;-67
2022/03/28 04:18:12;;;;;;;13.18;7.15;;;5.40;93.50;;;;;;5059439;28;20735;-69
2022/03/28 04:20:38;;;;;;;14.73;7.10;;;5.40;93.70;;;;;;5061127;28;20147;-68
2022/03/28 04:23:04;;;;;;;14.18;7.32;;;5.40;93.80;;;;;;5058098;28;20032;-69
2022/03/28 04:25:30;;;;;;;14.82;7.53;;;5.40;93.90;;;;;;5057566;28;20052;-69
2022/03/28 04:27:56;;;;;;;13.38;7.25;;;5.40;93.90;;;;;;5036645;28;20067;-68
2022/03/28 04:30:23;;;;;;;14.50;7.30;;;5.40;93.90;;;;;;5056587;28;20043;-68
2022/03/28 04:32:49;;;;;;;15.07;7.38;;;5.40;93.90;;;;;;5050416;28;20110;-68
2022/03/28 04:35:14;;;;;;;20.00;8.55;;;5.40;94.00;;;;;;5058387;28;20032;-68
2022/03/28 04:37:42;;;;;;;17.65;7.90;;;5.40;94.00;;;;;;5058034;28;20095;-68
2022/03/28 04:40:10;;;;;;;14.57;8.02;;;5.40;94.00;;;;;;5059720;28;20112;-68
2022/03/28 04:42:36;;;;;;;18.10;9.57;;;5.40;94.10;;;;;;5042967;28;20146;-68
2022/03/28 04:45:04;;;;;;;19.90;8.55;;;5.40;94.10;;;;;;5057475;28;20666;-68
2022/03/28 04:47:30;;;;;;;17.90;9.38;;;5.40;94.10;;;;;;5058462;28;20699;-68
2022/03/28 04:49:56;;;;;;;15.52;8.25;;;5.50;94.10;;;;;;5061557;28;20044;-68
2022/03/28 04:52:22;;;;;;;15.65;7.25;;;5.40;94.00;;;;;;5040791;28;20029;-68
2022/03/28 04:54:48;;;;;;;19.48;8.23;;;5.40;94.00;;;;;;5053380;28;20036;-68
2022/03/28 04:57:13;;;;;;;16.85;8.25;;;5.40;94.10;;;;;;5058845;28;20029;-68
2022/03/28 04:59:39;;;;;;;15.48;8.30;;;5.40;94.20;;;;;;5058313;28;20137;-68
2022/03/28 05:02:06;;;;;;;15.60;8.52;;;5.50;94.20;;;;;;5060280;28;20089;-68
2022/03/28 05:04:32;;;;;;;21.08;9.02;;;5.50;94.20;;;;;;5058183;28;20086;-68
2022/03/28 05:06:59;;;;;;;21.25;9.52;;;5.50;94.50;;;;;;5057885;28;20496;-68
2022/03/28 05:09:24;;;;;;;16.58;8.27;;;5.50;94.30;;;;;;5057249;28;20040;-68
2022/03/28 05:11:50;;;;;;;17.38;9.38;;;5.60;94.30;;;;;;5058776;28;20036;-68
2022/03/28 05:14:18;;;;;;;19.67;9.48;;;5.60;94.30;;;;;;5056731;28;20063;-67
2022/03/28 05:16:44;;;;;;;22.13;9.73;;;5.60;94.30;;;;;;5053108;28;20044;-68
2022/03/28 05:19:10;;;;;;;18.02;9.32;;;5.70;94.20;;;;;;5054971;28;20033;-68
2022/03/28 05:21:35;;;;;;;18.63;8.75;;;5.70;94.10;;;;;;5061798;28;20109;-68
2022/03/28 05:24:02;;;;;;;23.17;10.68;;;5.80;94.10;;;;;;5052764;28;20025;-68
2022/03/28 05:26:27;;;;;;;19.63;10.35;;;5.80;94.00;;;;;;5039265;28;20029;-68
2022/03/28 05:28:53;;;;;;;20.30;10.30;;;5.90;94.00;;;;;;5057835;28;20032;-68
2022/03/28 05:31:19;;;;;;;19.77;9.75;;;6.00;94.00;;;;;;5057780;28;20119;-68
2022/03/28 05:33:45;;;;;;;20.25;10.25;;;6.00;93.90;;;;;;5053820;28;20869;-68
2022/03/28 05:36:12;;;;;;;16.80;8.60;;;6.20;93.90;;;;;;5053655;28;20029;-68
2022/03/28 05:38:38;;;;;;;22.45;9.35;;;6.20;93.80;;;;;;5056852;28;20033;-69
2022/03/28 05:41:07;;;;;;;17.88;8.40;;;6.30;93.50;;;;;;5057296;28;20048;-68
2022/03/28 05:43:34;;;;;;;18.20;9.70;;;6.40;93.40;;;;;;5049718;28;20041;-68
2022/03/28 05:46:01;;;;;;;19.75;9.35;;;6.50;93.30;;;;;;5055311;28;20032;-68
2022/03/28 05:48:26;;;;;;;17.52;8.05;;;6.60;93.20;;;;;;5053355;28;20094;-68
2022/03/28 05:50:52;;;;;;;18.90;9.60;;;6.70;93.00;;;;;;5043225;28;20654;-68
2022/03/28 05:53:19;;;;;;;16.52;9.07;;;6.80;92.80;;;;;;5058150;28;20056;-68
2022/03/28 05:55:44;;;;;;;19.70;9.43;;;6.90;92.60;;;;;;5056489;28;20111;-68
2022/03/28 05:58:11;;;;;;;22.63;9.82;;;7.10;92.50;;;;;;5052160;28;20561;-68
2022/03/28 06:00:38;;;;;;;22.05;9.68;;;7.20;92.40;;;;;;5055865;28;20032;-68
2022/03/28 06:03:04;;;;;;;24.45;10.35;;;7.40;92.20;;;;;;5060742;28;20028;-68
2022/03/28 06:05:36;;;;;;;21.58;10.07;;;7.50;91.90;;;;;;5050229;28;20033;-68
2022/03/28 06:08:03;;;;;;;22.45;10.10;;;7.70;91.70;;;;;;5054365;28;20044;-68
2022/03/28 06:10:29;;;;;;;20.48;10.52;;;7.90;91.30;;;;;;5056392;28;20123;-68
2022/03/28 06:12:55;;;;;;;17.23;9.45;;;8.10;90.90;;;;;;5056861;28;20127;-68
2022/03/28 06:15:21;;;;;;;18.42;9.55;;;8.30;90.60;;;;;;5055693;28;20020;-68
2022/03/28 06:17:47;;;;;;;18.52;9.45;;;8.40;90.40;;;;;;5050440;28;20911;-68
2022/03/28 06:20:13;;;;;;;20.48;8.70;;;8.50;90.20;;;;;;5058327;28;20036;-67
2022/03/28 06:22:40;;;;;;;23.70;10.20;;;8.50;90.10;;;;;;5057711;28;20041;-68
2022/03/28 06:25:08;;;;;;;18.83;9.60;;;8.60;89.70;;;;;;5057054;28;20036;-68
2022/03/28 06:27:40;;;;;;;26.35;9.80;;;8.60;89.70;;;;;;5061572;28;20036;-68
2022/03/28 06:30:11;;;;;;;19.30;9.35;;;8.70;89.30;;;;;;5053459;28;20035;-68
2022/03/28 06:32:38;;;;;;;18.75;9.48;;;8.80;89.00;;;;;;5056240;28;20029;-68
2022/03/28 06:35:06;;;;;;;18.02;10.02;;;8.80;88.80;;;;;;5059170;28;20135;-68
2022/03/28 06:37:32;;;;;;;18.75;9.73;;;8.90;88.80;;;;;;5053610;28;20029;-68
2022/03/28 06:39:58;;;;;;;20.23;9.88;;;9.00;88.40;;;;;;5060033;28;20035;-68
2022/03/28 06:42:24;;;;;;;20.20;9.02;;;9.10;88.00;;;;;;5053539;28;20054;-67
2022/03/28 06:44:50;;;;;;;17.35;9.13;;;9.20;87.70;;;;;;5041407;28;20036;-67
2022/03/28 06:47:15;;;;;;;23.98;9.55;;;9.30;87.40;;;;;;5053382;28;20453;-68
2022/03/28 06:49:41;;;;;;;18.85;8.68;;;9.50;87.20;;;;;;5056328;28;20037;-68
2022/03/28 06:52:08;;;;;;;21.17;9.95;;;9.60;86.90;;;;;;5052874;28;20108;-68
2022/03/28 06:54:35;;;;;;;17.83;8.82;;;9.70;85.80;;;;;;5054674;28;20051;-67
2022/03/28 06:57:02;;;;;;;19.80;9.25;;;9.80;85.90;;;;;;5054956;28;20067;-68
2022/03/28 06:59:29;;;;;;;19.58;8.63;;;10.10;85.10;;;;;;5058263;28;20118;-68
2022/03/28 07:01:56;;;;;;;18.80;8.68;;;11.20;83.00;;;;;;5039254;28;20098;-68
2022/03/28 07:04:23;;;;;;;18.80;8.02;;;14.50;70.30;;;;;;5060685;28;20036;-68
2022/03/28 07:06:49;;;;;;;19.25;8.88;;;16.70;60.20;;;;;;5055048;28;20044;-68
2022/03/28 07:09:14;;;;;;;18.67;8.52;;;19.20;52.30;;;;;;5051487;28;20033;-68
2022/03/28 07:11:40;;;;;;;16.70;7.85;;;20.70;46.30;;;;;;5053533;28;20028;-68
2022/03/28 07:14:07;;;;;;;20.23;8.20;;;22.20;43.40;;;;;;5058587;28;20471;-68
2022/03/28 07:16:34;;;;;;;19.30;8.60;;;23.00;41.40;;;;;;5059265;28;20040;-68
2022/03/28 07:18:59;;;;;;;15.63;8.65;;;23.30;40.00;;;;;;5059661;28;20106;-68
2022/03/28 07:21:25;;;;;;;18.95;8.65;;;23.90;38.70;;;;;;5050123;28;20092;-68
2022/03/28 07:23:52;;;;;;;17.08;8.70;;;23.40;39.30;;;;;;5050841;28;20060;-68
2022/03/28 07:26:20;;;;;;;14.40;7.95;;;21.60;41.50;;;;;;5048084;28;20037;-68
2022/03/28 07:28:46;;;;;;;13.50;7.88;;;20.20;44.90;;;;;;5047331;28;20033;-68
2022/03/28 07:31:12;;;;;;;17.38;8.82;;;20.30;45.40;;;;;;5049402;28;20534;-68
2022/03/28 07:33:38;;;;;;;16.98;8.98;;;21.70;43.50;;;;;;5057571;28;20570;-68
2022/03/28 07:36:05;;;;;;;17.75;8.82;;;23.90;39.00;;;;;;5038325;28;20035;-69
2022/03/28 07:38:30;;;;;;;16.60;7.70;;;24.30;37.90;;;;;;5054801;28;20033;-68
2022/03/28 07:40:56;;;;;;;16.98;8.00;;;24.50;37.70;;;;;;5039696;28;20039;-68
2022/03/28 07:43:22;;;;;;;17.52;8.73;;;25.50;35.30;;;;;;5053854;28;20347;-68
2022/03/28 07:45:50;;;;;;;17.67;8.45;;;24.60;36.60;;;;;;5054018;28;20595;-67
2022/03/28 07:48:16;;;;;;;17.75;8.80;;;23.70;38.40;;;;;;5055459;28;20025;-68
2022/03/28 07:50:42;;;;;;;19.65;8.70;;;24.00;38.30;;;;;;5055945;28;20051;-68
2022/03/28 07:53:07;;;;;;;15.27;8.02;;;26.10;35.60;;;;;;5059308;28;20563;-68
2022/03/28 07:55:33;;;;;;;16.17;8.10;;;29.20;32.10;;;;;;5058874;28;20106;-68
2022/03/28 07:58:03;;;;;;;17.10;7.57;;;31.90;29.30;;;;;;5062260;28;20710;-69
2022/03/28 08:00:29;;;;;;;20.50;7.43;;;33.70;27.80;;;;;;5062550;28;20463;-69
2022/03/28 08:02:56;;;;;;;15.48;7.38;;;34.80;26.00;;;;;;5055397;28;20763;-69
2022/03/28 08:05:22;;;;;;;13.10;7.82;;;34.00;26.40;;;;;;5060154;28;20051;-69
2022/03/28 08:07:52;;;;;;;12.10;7.75;;;33.40;26.90;;;;;;5057854;28;20037;-69
2022/03/28 08:10:19;;;;;;;11.63;6.20;;;33.60;26.50;;;;;;5040364;28;20480;-69
2022/03/28 08:12:45;;;;;;;10.90;6.95;;;33.30;26.40;;;;;;5058462;28;20021;-69
2022/03/28 08:15:13;;;;;;;15.38;7.38;;;32.40;27.00;;;;;;5053604;28;20025;-68
2022/03/28 08:17:40;;;;;;;13.20;7.68;;;31.30;28.00;;;;;;5055096;28;20032;-67
2022/03/28 08:20:10;;;;;;;12.68;6.75;;;31.10;28.10;;;;;;5061291;28;20569;-68
2022/03/28 08:22:37;;;;;;;14.02;7.65;;;30.70;28.00;;;;;;5062784;28;20139;-69
2022/03/28 08:25:04;;;;;;;13.30;7.22;;;30.40;28.70;;;;;;5057269;28;21086;-69
2022/03/28 08:27:31;;;;;;;14.55;7.55;;;29.70;28.80;;;;;;5061065;28;20040;-67
2022/03/28 08:29:56;;;;;;;20.23;9.48;;;28.80;29.80;;;;;;5061982;28;20070;-66
2022/03/28 08:32:22;;;;;;;15.82;8.60;;;27.80;29.80;;;;;;5063839;28;20064;-67
2022/03/28 08:34:48;;;;;;;15.20;7.63;;;26.50;31.60;;;;;;5063865;28;20021;-66
2022/03/28 08:37:17;;;;;;;17.52;8.88;;;26.20;32.30;;;;;;5057261;28;20762;-67
2022/03/28 08:39:44;;;;;;;12.35;7.57;;;25.00;34.00;;;;;;5057819;28;20056;-65
2022/03/28 08:42:12;;;;;;;17.02;7.78;;;24.10;35.40;;;;;;5057582;28;20032;-68
2022/03/28 08:44:41;;;;;;;17.52;7.57;;;22.80;37.10;;;;;;5053607;28;20131;-67
2022/03/28 08:47:10;;;;;;;15.75;6.93;;;21.40;40.20;;;;;;5054216;28;20082;-68
2022/03/28 08:49:36;;;;;;;13.20;6.45;;;22.40;39.20;;;;;;5061869;28;20068;-69
2022/03/28 08:52:06;;;;;;;14.52;6.85;;;26.30;33.50;;;;;;5053995;28;20054;-67
2022/03/28 08:54:32;;;;;;;12.20;6.28;;;27.90;30.00;;;;;;5059419;28;20033;-68
2022/03/28 08:56:57;;;;;;;16.42;7.53;;;28.50;29.90;;;;;;5054750;28;20036;-69
2022/03/28 08:59:23;;;;;;;17.25;7.00;;;28.20;29.80;;;;;;5055931;28;20040;-66
2022/03/28 09:01:50;;;;;;;12.80;6.13;;;27.90;30.20;;;;;;5043402;28;20040;-67
2022/03/28 09:04:16;;;;;;;12.70;6.18;;;29.10;29.50;;;;;;5062616;28;20035;-67
2022/03/28 09:06:45;;;;;;;13.85;6.47;;;31.20;28.20;;;;;;5062059;28;20489;-68
2022/03/28 09:09:12;;;;;;;11.93;5.63;;;31.30;27.70;;;;;;5054226;28;20511;-68
2022/03/28 09:11:42;;;;;;;12.30;6.03;;;30.80;28.10;;;;;;5052379;28;20497;-68
2022/03/28 09:14:11;;;;;;;13.70;5.88;;;30.50;28.10;;;;;;5060637;28;20044;-68
2022/03/28 09:16:37;;;;;;;8.48;4.97;;;31.50;27.50;;;;;;5047638;28;20032;-68
2022/03/28 09:19:12;;;;;;;11.02;5.28;;;33.20;26.40;;;;;;5059548;28;20039;-66
2022/03/28 09:21:38;;;;;;;10.80;4.95;;;34.50;25.30;;;;;;5051503;28;20044;-65
2022/03/28 09:24:09;;;;;;;8.55;4.90;;;36.40;24.10;;;;;;5049830;28;20045;-68
2022/03/28 09:26:35;;;;;;;10.32;4.93;;;36.10;24.30;;;;;;5061361;28;20028;-68
2022/03/28 09:29:05;;;;;;;11.05;5.07;;;32.70;25.00;;;;;;5053851;28;20042;-67
2022/03/28 09:31:35;;;;;;;10.10;5.03;;;30.60;27.60;;;;;;5055942;28;20085;-67
2022/03/28 09:34:10;;;;;;;12.75;4.63;;;29.60;28.30;;;;;;5041668;28;20157;-67
2022/03/28 09:36:51;;;;;;;12.10;4.70;;;29.90;28.30;;;;;;5057048;28;20412;-67
2022/03/28 09:39:23;;;;;;;9.93;4.47;;;28.60;29.00;;;;;;5053951;28;20059;-67
2022/03/28 09:42:09;;;;;;;9.75;5.00;;;26.50;30.80;;;;;;5053862;28;20033;-67
2022/03/28 09:44:51;;;;;;;10.20;4.43;;;24.80;33.80;;;;;;5040208;28;20116;-67
2022/03/28 09:47:23;;;;;;;8.18;4.10;;;25.20;33.10;;;;;;5056057;28;20508;-67
2022/03/28 09:49:51;;;;;;;8.55;4.60;;;25.70;32.00;;;;;;5051540;28;20058;-67
2022/03/28 09:52:20;;;;;;;8.52;3.53;;;27.10;30.20;;;;;;5051824;28;20037;-67
2022/03/28 09:54:57;;;;;;;8.50;3.67;;;28.10;29.20;;;;;;5056649;28;20040;-67
2022/03/28 09:57:28;;;;;;;8.70;4.43;;;28.60;28.80;;;;;;5052417;28;20059;-68
2022/03/28 10:00:12;;;;;;;8.38;4.45;;;31.30;26.90;;;;;;5055051;28;20048;-67
2022/03/28 10:02:38;;;;;;;9.60;4.40;;;33.10;25.70;;;;;;5051786;28;20036;-68
2022/03/28 10:05:05;;;;;;;11.68;5.50;;;30.70;27.50;;;;;;5052608;28;20075;-68
2022/03/28 10:07:32;;;;;;;7.78;4.05;;;28.30;28.30;;;;;;5060681;28;20079;-68
2022/03/28 10:09:58;;;;;;;7.68;3.75;;;28.40;29.60;;;;;;5059239;28;20036;-68
2022/03/28 10:12:24;;;;;;;10.68;3.90;;;30.70;26.80;;;;;;5052678;28;20052;-67
2022/03/28 10:14:57;;;;;;;10.18;4.95;;;34.40;25.20;;;;;;5057032;28;20991;-69
2022/03/28 10:17:24;;;;;;;13.80;4.65;;;37.80;22.80;;;;;;5048559;28;20033;-68
2022/03/28 10:19:51;;;;;;;7.35;4.15;;;38.40;22.10;;;;;;5055748;28;20028;-67
2022/03/28 10:22:22;;;;;;;10.00;4.35;;;39.50;22.20;;;;;;5059577;28;20043;-68
2022/03/28 10:24:50;;;;;;;8.45;3.90;;;38.90;22.00;;;;;;5051804;28;20033;-68
2022/03/28 10:27:17;;;;;;;9.07;3.83;;;39.10;22.10;;;;;;5055778;28;20047;-66
2022/03/28 10:29:46;;;;;;;11.15;4.05;;;40.40;21.60;;;;;;5052904;28;20061;-67
2022/03/28 10:32:19;;;;;;;7.47;4.10;;;40.80;21.00;;;;;;5056607;28;20571;-67
2022/03/28 10:35:01;;;;;;;5.35;3.78;;;40.00;20.90;;;;;;5053965;28;20033;-67
2022/03/28 10:37:40;;;;;;;5.45;3.03;;;39.70;21.60;;;;;;5060686;28;20071;-65
2022/03/28 10:40:11;;;;;;;7.28;3.38;;;39.40;21.40;;;;;;5055908;28;20024;-66
2022/03/28 10:42:47;;;;;;;6.22;3.08;;;38.60;21.40;;;;;;5057877;28;20036;-67
2022/03/28 10:45:18;;;;;;;5.85;3.13;;;37.00;22.30;;;;;;5054461;28;20049;-67
2022/03/28 10:47:52;;;;;;;6.53;2.85;;;35.70;23.20;;;;;;5056169;28;20115;-67
2022/03/28 10:50:32;;;;;;;5.55;2.90;;;35.90;23.50;;;;;;5059998;28;20320;-67
2022/03/28 10:53:08;;;;;;;7.55;2.88;;;35.30;23.10;;;;;;5053487;28;20032;-67
2022/03/28 10:55:48;;;;;;;4.35;2.20;;;34.80;23.90;;;;;;5052367;28;20029;-67
2022/03/28 10:58:28;;;;;;;6.93;2.15;;;36.80;23.00;;;;;;5051093;28;20020;-67
2022/03/28 11:01:25;;;;;;;3.25;1.83;;;38.60;22.30;;;;;;5055399;28;20036;-68
2022/03/28 11:03:58;;;;;;;3.55;1.75;;;39.70;21.10;;;;;;5045388;28;20170;-67
2022/03/28 11:06:44;;;;;;;3.92;2.20;;;38.70;22.10;;;;;;5039647;28;20041;-68
2022/03/28 11:09:10;;;;;;;2.92;2.00;;;37.30;22.00;;;;;;5037266;28;20489;-68
2022/03/28 11:11:36;;;;;;;4.63;1.98;;;37.20;22.50;;;;;;5055539;28;20144;-67
2022/03/28 11:14:10;;;;;;;5.05;2.22;;;38.20;21.80;;;;;;5039034;28;20488;-68
2022/03/28 11:16:43;;;;;;;3.60;2.17;;;35.60;22.80;;;;;;5055228;28;20029;-68
2022/03/28 11:19:21;;;;;;;5.68;2.67;;;32.00;25.50;;;;;;5051500;28;20040;-67
2022/03/28 11:22:08;;;;;;;7.55;3.03;;;28.60;28.00;;;;;;5042678;28;20036;-68
2022/03/28 11:24:48;;;;;;;5.00;2.53;;;26.20;30.50;;;;;;5058189;28;20037;-68
2022/03/28 11:27:16;;;;;;;7.15;3.10;;;24.40;32.90;;;;;;5059252;28;20481;-68
2022/03/28 11:29:43;;;;;;;7.75;3.03;;;23.40;34.40;;;;;;5063123;28;20040;-67
2022/03/28 11:32:12;;;;;;;5.53;2.83;;;22.70;36.30;;;;;;5057575;28;20587;-68
2022/03/28 11:34:38;;;;;;;8.30;3.30;;;22.30;36.80;;;;;;5055950;28;20593;-68
2022/03/28 11:37:05;;;;;;;5.80;3.08;;;21.90;37.00;;;;;;5055120;28;20051;-67
2022/03/28 11:39:50;;;;;;;6.90;3.40;;;21.60;38.40;;;;;;5056513;28;20021;-68
2022/03/28 11:42:26;;;;;;;5.82;3.45;;;21.30;38.70;;;;;;5057646;28;20036;-67
2022/03/28 11:44:52;;;;;;;9.07;3.60;;;21.20;39.40;;;;;;5059550;28;20024;-68
2022/03/28 11:47:18;;;;;;;4.70;2.85;;;21.10;39.60;;;;;;5041424;28;20798;-67
2022/03/28 11:49:56;;;;;;;4.32;2.72;;;21.00;40.00;;;;;;5043167;28;20036;-67
2022/03/28 11:52:23;;;;;;;4.57;2.53;;;21.00;39.70;;;;;;5059255;28;20043;-68
2022/03/28 11:54:50;;;;;;;6.28;2.80;;;20.90;40.00;;;;;;5058834;28;20850;-68
2022/03/28 12:00:17;;;;;;;5.45;2.60;;;20.80;40.00;;;;;;5059475;28;20090;-67
2022/03/28 12:02:53;;;;;;;6.55;2.92;;;20.70;40.50;;;;;;5056093;28;20032;-68
2022/03/28 12:05:28;;;;;;;7.15;2.80;;;20.60;40.40;;;;;;5057825;28;20045;-68
2022/03/28 12:07:54;;;;;;;7.78;2.75;;;20.50;40.10;;;;;;5058517;28;20064;-69
2022/03/28 12:10:28;;;;;;;4.28;2.47;;;20.40;40.20;;;;;;5058923;28;20614;-67
2022/03/28 12:12:58;;;;;;;7.32;2.55;;;20.30;40.30;;;;;;5052078;28;20776;-64
2022/03/28 12:15:29;;;;;;;5.50;2.85;;;20.30;40.30;;;;;;5052872;28;20686;-68
2022/03/28 12:17:59;;;;;;;4.80;2.70;;;20.20;40.50;;;;;;5057905;28;20036;-68
2022/03/28 12:20:28;;;;;;;5.00;2.50;;;20.20;40.90;;;;;;5059428;28;20553;-67
2022/03/28 12:22:54;;;;;;;7.90;2.58;;;20.20;40.20;;;;;;5055247;28;20567;-69
2022/03/28 12:25:32;;;;;;;3.72;2.30;;;20.10;40.00;;;;;;5054971;28;20855;-69
2022/03/28 12:27:59;;;;;;;5.80;2.72;;;20.00;40.40;;;;;;5055295;28;20068;-68
2022/03/28 12:30:32;;;;;;;4.75;2.10;;;20.00;40.50;;;;;;5048870;28;20042;-69
2022/03/28 12:33:02;;;;;;;4.75;2.83;;;20.00;39.80;;;;;;5048240;28;20044;-69
2022/03/28 12:35:28;;;;;;;10.35;2.97;;;20.00;39.40;;;;;;5047727;28;20040;-68
2022/03/28 12:38:03;;;;;;;6.07;2.80;;;19.90;39.20;;;;;;5038528;28;20039;-69
2022/03/28 12:40:31;;;;;;;6.65;3.00;;;19.80;40.70;;;;;;5057793;28;20063;-69
2022/03/28 12:42:58;;;;;;;6.40;3.20;;;19.90;39.30;;;;;;5058641;28;20032;-69
2022/03/28 12:45:29;;;;;;;5.20;2.75;;;19.70;39.70;;;;;;5048711;28;20050;-68
2022/03/28 12:48:01;;;;;;;4.10;2.22;;;19.70;39.70;;;;;;5058204;28;20500;-68
2022/03/28 12:50:28;;;;;;;6.40;2.83;;;19.60;40.10;;;;;;5052371;28;20078;-68
2022/03/28 12:53:14;;;;;;;5.90;2.95;;;19.60;39.50;;;;;;5054623;28;20403;-69
2022/03/28 12:55:41;;;;;;;;;;;19.60;40.50;;;;;;5055085;28;20090;-68